Time;durP1;ratioP1;P1;durP2;ratioP2;P2;SDS_P1;SDS_P2;PMS_P1;PMS_P2;Temp;Humidity;BMP_temperature;BMP_pressure;BME280_temperature;BME280_humidity;BME280_pressure;Samples;Min_cycle;Max_cycle;Signal;HPM_P1;HPM_P2
2021/12/14 00:00:32;;;;;;;21.17;15.70;;;9.70;99.90;;;;;;5086102;28;20217;-71
2021/12/14 00:18:44;;;;;;;23.70;17.13;;;9.30;99.90;;;;;;5081326;28;20188;-74
2021/12/14 00:21:19;;;;;;;24.35;17.05;;;9.20;99.90;;;;;;5072029;28;20270;-74
2021/12/14 00:24:09;;;;;;;21.58;16.45;;;9.20;99.90;;;;;;5060152;28;20201;-75
2021/12/14 00:26:42;;;;;;;24.23;17.23;;;9.20;99.90;;;;;;5058871;28;20798;-73
2021/12/14 00:29:14;;;;;;;21.63;16.23;;;9.20;99.90;;;;;;5060512;28;20224;-74
2021/12/14 00:31:42;;;;;;;25.08;18.25;;;9.20;99.90;;;;;;5059488;28;20207;-74
2021/12/14 00:34:14;;;;;;;23.33;16.92;;;9.30;99.90;;;;;;5058946;28;20813;-73
2021/12/14 00:36:42;;;;;;;22.80;17.23;;;9.30;99.90;;;;;;5059301;28;20197;-74
2021/12/14 00:39:10;;;;;;;21.92;16.52;;;9.40;99.90;;;;;;5059636;28;20220;-74
2021/12/14 00:41:40;;;;;;;23.02;17.60;;;9.50;99.90;;;;;;5067078;28;20215;-75
2021/12/14 00:44:09;;;;;;;22.47;15.97;;;9.50;99.90;;;;;;5059905;28;20201;-75
2021/12/14 00:46:38;;;;;;;20.85;16.08;;;9.50;99.90;;;;;;5061271;28;20486;-74
2021/12/14 00:49:07;;;;;;;27.58;16.58;;;9.50;99.90;;;;;;5060758;28;20217;-75
2021/12/14 00:51:36;;;;;;;21.23;14.80;;;9.50;99.90;;;;;;5060759;28;20257;-72
2021/12/14 00:54:12;;;;;;;27.48;17.83;;;9.50;99.90;;;;;;5059676;28;20219;-72
2021/12/14 00:56:45;;;;;;;21.73;16.52;;;9.60;99.90;;;;;;5059965;28;20196;-72
2021/12/14 00:59:15;;;;;;;19.45;16.40;;;9.60;99.90;;;;;;5058262;28;20224;-72
2021/12/14 01:01:47;;;;;;;21.52;17.83;;;9.60;99.90;;;;;;5059022;28;20197;-72
2021/12/14 01:04:18;;;;;;;20.05;15.10;;;9.70;99.90;;;;;;5058025;28;20205;-72
2021/12/14 01:06:48;;;;;;;20.88;15.43;;;9.70;99.90;;;;;;5058609;28;20217;-72
2021/12/14 01:09:20;;;;;;;20.35;15.27;;;9.70;99.90;;;;;;5058376;28;20832;-71
2021/12/14 01:11:50;;;;;;;20.63;14.88;;;9.60;99.90;;;;;;5059539;28;20205;-72
2021/12/14 01:14:26;;;;;;;26.30;16.77;;;9.60;99.90;;;;;;5058897;28;20207;-71
2021/12/14 01:17:09;;;;;;;20.85;16.67;;;9.60;99.90;;;;;;5058753;28;20188;-72
2021/12/14 01:19:39;;;;;;;21.63;16.60;;;9.60;99.90;;;;;;5059084;28;20225;-71
2021/12/14 01:22:18;;;;;;;22.50;15.82;;;9.60;99.90;;;;;;5058652;28;20200;-70
2021/12/14 01:25:05;;;;;;;19.50;15.10;;;9.60;99.90;;;;;;5058459;28;20811;-70
2021/12/14 01:27:45;;;;;;;22.92;17.30;;;9.60;99.90;;;;;;5058260;28;20246;-71
2021/12/14 01:30:19;;;;;;;22.90;16.73;;;9.70;99.90;;;;;;5058386;28;20235;-71
2021/12/14 01:32:50;;;;;;;19.20;16.10;;;9.70;99.90;;;;;;5060542;28;20205;-72
2021/12/14 01:35:25;;;;;;;22.20;16.55;;;9.60;99.90;;;;;;5068791;28;20435;-72
2021/12/14 01:38:02;;;;;;;19.80;16.97;;;9.60;99.90;;;;;;5058088;28;20207;-72
2021/12/14 01:43:33;;;;;;;21.00;17.15;;;9.50;99.90;;;;;;5010174;28;20881;-71
2021/12/14 01:46:04;;;;;;;22.77;17.88;;;9.40;99.90;;;;;;5057808;28;20217;-71
2021/12/14 01:48:33;;;;;;;19.75;16.45;;;9.40;99.90;;;;;;5061545;28;20235;-71
2021/12/14 01:51:03;;;;;;;24.35;16.13;;;9.40;99.90;;;;;;5061764;28;20231;-71
2021/12/14 01:53:33;;;;;;;23.58;18.05;;;9.40;99.90;;;;;;5061716;28;20224;-71
2021/12/14 01:56:07;;;;;;;26.77;17.73;;;9.50;99.90;;;;;;5061833;28;20809;-71
2021/12/14 01:58:40;;;;;;;22.27;17.25;;;9.40;99.90;;;;;;5062047;28;20200;-71
2021/12/14 02:01:12;;;;;;;24.60;16.55;;;9.50;99.90;;;;;;5061444;28;20197;-71
2021/12/14 02:03:44;;;;;;;22.87;16.63;;;9.50;99.90;;;;;;5061329;28;20197;-71
2021/12/14 02:06:20;;;;;;;20.30;16.10;;;9.50;99.90;;;;;;5062627;28;20477;-70
2021/12/14 02:08:55;;;;;;;23.35;16.25;;;9.60;99.90;;;;;;5061411;28;20200;-69
2021/12/14 02:11:25;;;;;;;23.30;16.85;;;9.50;99.90;;;;;;5061860;28;20231;-69
2021/12/14 02:13:55;;;;;;;24.40;16.13;;;9.60;99.90;;;;;;5061514;28;20863;-69
2021/12/14 02:16:24;;;;;;;20.77;15.10;;;9.60;99.90;;;;;;5061621;28;20949;-69
2021/12/14 02:18:56;;;;;;;24.60;15.55;;;9.60;99.90;;;;;;5061549;28;20943;-70
2021/12/14 02:21:27;;;;;;;22.67;17.05;;;9.70;99.90;;;;;;5061466;28;20209;-70
2021/12/14 02:23:56;;;;;;;19.85;15.63;;;9.60;99.90;;;;;;5061551;28;20205;-70
2021/12/14 02:26:27;;;;;;;20.40;16.15;;;9.60;99.90;;;;;;5061856;28;20247;-74
2021/12/14 02:28:56;;;;;;;21.15;16.80;;;9.60;99.90;;;;;;5076756;28;20220;-73
2021/12/14 02:31:27;;;;;;;22.13;16.98;;;9.70;99.90;;;;;;5086827;28;20288;-74
2021/12/14 02:33:59;;;;;;;19.58;15.60;;;9.70;99.90;;;;;;5067622;28;20207;-74
2021/12/14 02:36:31;;;;;;;23.05;16.25;;;9.60;99.90;;;;;;5068298;28;20201;-72
2021/12/14 02:39:07;;;;;;;21.73;15.30;;;9.70;99.90;;;;;;5068710;28;20285;-72
2021/12/14 02:41:45;;;;;;;22.08;16.20;;;9.70;99.90;;;;;;5069044;28;20232;-72
2021/12/14 02:44:14;;;;;;;26.05;17.80;;;9.70;99.90;;;;;;5067409;28;20279;-72
2021/12/14 02:46:45;;;;;;;21.80;16.37;;;9.70;99.90;;;;;;5064395;28;20228;-75
2021/12/14 02:49:17;;;;;;;19.17;16.30;;;9.70;99.90;;;;;;5068456;28;20500;-72
2021/12/14 02:51:50;;;;;;;23.80;17.10;;;9.60;99.90;;;;;;5064926;28;20315;-72
2021/12/14 02:54:22;;;;;;;21.73;16.92;;;9.60;99.90;;;;;;5060950;28;20931;-72
2021/12/14 02:56:54;;;;;;;23.23;18.05;;;9.50;99.90;;;;;;5060819;28;20205;-74
2021/12/14 02:59:29;;;;;;;21.70;16.30;;;9.50;99.90;;;;;;5061863;28;20217;-74
2021/12/14 03:02:03;;;;;;;21.38;17.38;;;9.50;99.90;;;;;;5061442;28;20843;-73
2021/12/14 03:04:32;;;;;;;21.90;17.10;;;9.60;99.90;;;;;;5061116;28;20724;-73
2021/12/14 03:07:02;;;;;;;21.03;16.83;;;9.50;99.90;;;;;;5060729;28;20223;-74
2021/12/14 03:09:39;;;;;;;20.30;15.87;;;9.50;99.90;;;;;;5060783;28;20455;-74
2021/12/14 03:12:11;;;;;;;18.17;14.80;;;9.50;99.90;;;;;;5061011;28;21073;-74
2021/12/14 03:14:41;;;;;;;20.70;16.02;;;9.50;99.90;;;;;;5060630;28;20231;-74
2021/12/14 03:17:09;;;;;;;22.88;15.88;;;9.50;99.90;;;;;;5060878;28;20439;-75
2021/12/14 03:19:37;;;;;;;23.40;18.40;;;9.50;99.90;;;;;;5060877;28;20304;-72
2021/12/14 03:22:28;;;;;;;20.08;16.25;;;9.50;99.90;;;;;;5061112;28;20447;-74
2021/12/14 03:24:56;;;;;;;20.67;16.30;;;9.50;99.90;;;;;;5066724;28;20202;-74
2021/12/14 03:27:24;;;;;;;23.52;17.02;;;9.40;99.90;;;;;;5061763;28;20220;-73
2021/12/14 03:29:52;;;;;;;21.60;17.02;;;9.40;99.90;;;;;;5061838;28;20244;-74
2021/12/14 03:32:20;;;;;;;25.48;17.20;;;9.40;99.90;;;;;;5062158;28;20212;-72
2021/12/14 03:34:48;;;;;;;23.52;17.10;;;9.40;99.90;;;;;;5062341;28;20198;-75
2021/12/14 03:37:22;;;;;;;17.02;14.48;;;9.30;99.90;;;;;;5062996;28;20209;-74
2021/12/14 03:39:54;;;;;;;17.33;14.63;;;9.40;99.90;;;;;;5061867;28;20240;-76
2021/12/14 03:42:26;;;;;;;21.80;16.17;;;9.50;99.90;;;;;;5061432;28;20200;-76
2021/12/14 03:44:57;;;;;;;22.05;16.00;;;9.50;99.90;;;;;;5060361;28;20215;-76
2021/12/14 03:47:29;;;;;;;20.05;16.70;;;9.50;99.90;;;;;;5059536;28;20856;-76
2021/12/14 03:50:00;;;;;;;22.13;16.63;;;9.50;99.90;;;;;;5060585;28;20225;-72
2021/12/14 03:52:32;;;;;;;17.63;14.80;;;9.50;99.90;;;;;;5059912;28;20197;-72
2021/12/14 03:55:04;;;;;;;24.00;18.05;;;9.50;99.90;;;;;;5060214;28;20208;-72
2021/12/14 03:57:32;;;;;;;22.33;16.85;;;9.50;99.90;;;;;;5061411;28;20203;-71
2021/12/14 04:00:00;;;;;;;21.20;15.38;;;9.40;99.90;;;;;;5060511;28;20221;-71
2021/12/14 04:02:28;;;;;;;19.50;14.80;;;9.40;99.90;;;;;;5060027;28;20201;-72
2021/12/14 04:05:04;;;;;;;21.80;17.20;;;9.40;99.90;;;;;;5060184;28;20918;-70
2021/12/14 04:07:35;;;;;;;23.17;16.88;;;9.50;99.90;;;;;;5060476;28;20228;-70
2021/12/14 04:10:06;;;;;;;22.65;15.50;;;9.50;99.90;;;;;;5059566;28;20224;-68
2021/12/14 04:12:34;;;;;;;20.05;15.38;;;9.40;99.90;;;;;;5083183;28;20331;-68
2021/12/14 04:15:01;;;;;;;21.92;16.48;;;9.40;99.90;;;;;;5070238;28;20197;-69
2021/12/14 04:17:30;;;;;;;19.60;16.02;;;9.40;99.90;;;;;;5066667;28;20264;-70
2021/12/14 04:19:58;;;;;;;20.77;16.57;;;9.40;99.90;;;;;;5074845;28;20231;-70
2021/12/14 04:22:33;;;;;;;20.23;16.13;;;9.40;99.90;;;;;;5076970;28;20538;-70
2021/12/14 04:25:07;;;;;;;22.58;17.02;;;9.30;99.90;;;;;;5075944;28;20232;-69
2021/12/14 04:27:35;;;;;;;21.90;15.52;;;9.40;99.90;;;;;;5070219;28;20217;-70
2021/12/14 04:30:07;;;;;;;19.42;15.55;;;9.40;99.90;;;;;;5060157;28;20224;-70
2021/12/14 04:32:35;;;;;;;18.77;16.02;;;9.40;99.90;;;;;;5060350;28;20232;-73
2021/12/14 04:35:03;;;;;;;22.73;17.45;;;9.40;99.90;;;;;;5060548;28;20215;-75
2021/12/14 04:37:36;;;;;;;20.42;16.35;;;9.40;99.90;;;;;;5060217;28;20566;-75
2021/12/14 04:40:19;;;;;;;22.10;15.60;;;9.40;99.90;;;;;;5059435;28;20235;-76
2021/12/14 04:53:55;;;;;;;19.85;14.75;;;9.30;99.90;;;;;;5059634;28;20212;-74
2021/12/14 04:56:28;;;;;;;22.10;16.63;;;9.20;99.90;;;;;;5059650;28;20676;-74
2021/12/14 04:59:00;;;;;;;17.35;13.82;;;9.30;99.90;;;;;;5059463;28;20227;-75
2021/12/14 05:01:28;;;;;;;22.13;15.95;;;9.30;99.90;;;;;;5064953;28;20223;-75
2021/12/14 05:03:58;;;;;;;17.40;14.40;;;9.20;99.90;;;;;;5083991;28;20204;-75
2021/12/14 05:06:33;;;;;;;17.98;15.00;;;9.30;99.90;;;;;;5083289;28;20219;-74
2021/12/14 05:09:22;;;;;;;17.42;13.93;;;9.30;99.90;;;;;;5074208;28;20231;-73
2021/12/14 05:11:54;;;;;;;20.77;14.57;;;9.30;99.90;;;;;;5060201;28;20207;-73
2021/12/14 05:14:23;;;;;;;19.55;16.17;;;9.30;99.90;;;;;;5060138;28;20777;-72
2021/12/14 05:16:54;;;;;;;18.30;14.55;;;9.30;99.90;;;;;;5059225;28;20211;-73
2021/12/14 05:19:35;;;;;;;16.23;14.20;;;9.30;99.90;;;;;;5059388;28;20232;-73
2021/12/14 05:22:07;;;;;;;16.67;14.60;;;9.30;99.90;;;;;;5063037;28;20679;-74
2021/12/14 05:24:38;;;;;;;21.83;15.10;;;9.30;99.90;;;;;;5062777;28;20193;-74
2021/12/14 05:27:09;;;;;;;16.50;14.52;;;9.30;99.90;;;;;;5063056;28;20197;-76
2021/12/14 05:29:39;;;;;;;18.65;14.38;;;9.30;99.90;;;;;;5064914;28;20342;-74
2021/12/14 05:32:09;;;;;;;17.17;13.75;;;9.30;99.90;;;;;;5062780;28;20204;-71
2021/12/14 05:34:38;;;;;;;16.75;13.82;;;9.30;99.90;;;;;;5062411;28;20710;-69
2021/12/14 05:37:07;;;;;;;17.70;14.38;;;9.20;99.90;;;;;;5061866;28;20679;-70
2021/12/14 05:39:50;;;;;;;18.38;14.25;;;9.20;99.90;;;;;;5062161;28;20213;-70
2021/12/14 05:45:20;;;;;;;16.50;13.70;;;9.20;99.90;;;;;;4970233;28;20790;-70
2021/12/14 05:47:51;;;;;;;15.40;12.20;;;9.20;99.90;;;;;;5040421;28;20249;-70
2021/12/14 05:50:22;;;;;;;16.48;13.75;;;9.30;99.90;;;;;;5060795;28;20220;-70
2021/12/14 05:52:51;;;;;;;16.33;14.10;;;9.30;99.90;;;;;;5061254;28;20225;-70
2021/12/14 05:55:24;;;;;;;16.08;13.80;;;9.30;99.90;;;;;;5047492;28;20193;-70
2021/12/14 05:57:54;;;;;;;14.98;11.93;;;9.30;99.90;;;;;;5062308;28;20189;-70
2021/12/14 06:00:23;;;;;;;16.10;12.55;;;9.40;99.90;;;;;;5060815;28;21015;-70
2021/12/14 06:02:51;;;;;;;14.82;12.20;;;9.40;99.90;;;;;;5061638;28;20197;-70
2021/12/14 06:05:21;;;;;;;14.90;13.07;;;9.40;99.90;;;;;;5060855;28;20212;-70
2021/12/14 06:07:50;;;;;;;17.15;13.00;;;9.40;99.90;;;;;;5060324;28;20217;-70
2021/12/14 06:10:22;;;;;;;15.88;13.15;;;9.40;99.90;;;;;;5065589;28;20213;-70
2021/12/14 06:12:50;;;;;;;13.57;11.45;;;9.40;99.90;;;;;;5061666;28;21858;-70
2021/12/14 06:15:27;;;;;;;16.02;12.98;;;9.50;99.90;;;;;;5058839;28;20201;-70
2021/12/14 06:17:55;;;;;;;16.98;13.38;;;9.50;99.90;;;;;;5061853;28;20189;-69
2021/12/14 06:20:26;;;;;;;18.30;14.38;;;9.50;99.90;;;;;;5061310;28;20235;-70
2021/12/14 06:22:55;;;;;;;14.57;12.23;;;9.60;99.90;;;;;;5060543;28;20200;-70
2021/12/14 06:25:25;;;;;;;14.38;11.98;;;9.50;99.90;;;;;;5062116;28;20209;-68
2021/12/14 06:27:55;;;;;;;15.88;12.68;;;9.40;99.90;;;;;;5061621;28;20201;-68
2021/12/14 06:30:29;;;;;;;14.98;13.23;;;9.40;99.90;;;;;;5061683;28;20216;-71
2021/12/14 06:33:00;;;;;;;17.48;12.10;;;9.40;99.90;;;;;;5060880;28;20258;-69
2021/12/14 06:35:33;;;;;;;16.10;12.50;;;9.50;99.90;;;;;;5062093;28;20203;-71
2021/12/14 06:38:24;;;;;;;17.13;13.13;;;9.60;99.90;;;;;;5063200;28;20459;-68
2021/12/14 06:40:57;;;;;;;15.82;13.50;;;9.50;99.90;;;;;;5067582;28;20235;-68
2021/12/14 06:43:28;;;;;;;17.85;12.00;;;9.60;99.90;;;;;;5083411;28;20228;-67
2021/12/14 06:46:00;;;;;;;18.75;13.80;;;9.60;99.90;;;;;;5065931;28;20822;-74
2021/12/14 06:48:33;;;;;;;19.23;13.60;;;9.50;99.90;;;;;;5061333;28;20228;-72
2021/12/14 06:51:05;;;;;;;16.17;13.85;;;9.40;99.90;;;;;;5060980;28;20211;-74
2021/12/14 06:53:34;;;;;;;18.83;14.68;;;9.30;99.90;;;;;;5061356;28;20201;-73
2021/12/14 06:56:05;;;;;;;16.75;13.82;;;9.20;99.90;;;;;;5061230;28;20742;-72
2021/12/14 06:58:37;;;;;;;19.48;14.40;;;9.20;99.90;;;;;;5061006;28;20280;-72
2021/12/14 07:01:14;;;;;;;20.90;16.02;;;9.20;99.90;;;;;;5060450;28;20205;-73
2021/12/14 07:03:45;;;;;;;17.58;13.45;;;9.20;99.90;;;;;;5060821;28;20230;-72
2021/12/14 07:06:25;;;;;;;20.52;15.05;;;9.10;99.90;;;;;;5060183;28;20231;-72
2021/12/14 07:08:55;;;;;;;21.70;15.50;;;9.10;99.90;;;;;;5059478;28;20288;-72
2021/12/14 07:11:25;;;;;;;18.60;14.85;;;9.10;99.90;;;;;;5059205;28;20197;-72
2021/12/14 07:13:54;;;;;;;17.75;13.73;;;9.10;99.90;;;;;;5057121;28;20432;-73
2021/12/14 07:16:31;;;;;;;22.95;17.55;;;9.10;99.90;;;;;;5056764;28;20778;-74
2021/12/14 07:19:03;;;;;;;22.05;16.30;;;9.10;99.90;;;;;;5058755;28;20205;-76
2021/12/14 07:21:45;;;;;;;23.80;16.27;;;9.10;99.90;;;;;;5048464;28;20595;-75
2021/12/14 07:24:34;;;;;;;21.38;15.30;;;9.20;99.90;;;;;;5057379;28;20197;-73
2021/12/14 07:27:22;;;;;;;21.63;15.15;;;9.20;99.90;;;;;;5055670;28;20211;-77
2021/12/14 07:29:51;;;;;;;20.25;15.88;;;9.20;99.90;;;;;;5059909;28;20225;-76
2021/12/14 07:32:41;;;;;;;21.15;16.88;;;9.20;99.90;;;;;;5059689;28;20193;-74
2021/12/14 07:35:21;;;;;;;22.60;19.60;;;9.20;99.90;;;;;;5058095;28;20418;-73
2021/12/14 07:37:49;;;;;;;24.90;18.08;;;9.20;99.90;;;;;;5059143;28;20226;-75
2021/12/14 07:40:17;;;;;;;24.20;16.70;;;9.20;99.90;;;;;;5058741;28;20213;-74
2021/12/14 07:42:45;;;;;;;24.47;16.87;;;9.30;99.90;;;;;;5054384;28;20594;-72
2021/12/14 07:45:24;;;;;;;21.17;15.00;;;9.20;99.90;;;;;;5058074;28;20486;-71
2021/12/14 07:47:54;;;;;;;22.23;16.08;;;9.30;99.90;;;;;;5058573;28;20209;-72
2021/12/14 07:50:41;;;;;;;27.02;19.05;;;9.30;99.90;;;;;;5058043;28;20435;-71
2021/12/14 07:53:09;;;;;;;21.60;16.70;;;9.30;99.90;;;;;;5059516;28;20933;-71
2021/12/14 07:55:41;;;;;;;22.67;17.73;;;9.20;99.90;;;;;;5057965;28;20204;-72
2021/12/14 07:58:10;;;;;;;26.65;18.75;;;9.20;99.90;;;;;;5060979;28;20828;-73
2021/12/14 08:00:42;;;;;;;26.45;17.98;;;9.10;99.90;;;;;;5058452;28;20384;-73
2021/12/14 08:03:12;;;;;;;25.95;17.65;;;9.10;99.90;;;;;;5055989;28;20200;-74
2021/12/14 08:05:44;;;;;;;29.98;20.08;;;9.10;99.90;;;;;;5058559;28;20606;-72
2021/12/14 08:08:18;;;;;;;28.98;19.55;;;9.10;99.90;;;;;;5060101;28;20236;-72
2021/12/14 08:11:08;;;;;;;30.20;20.10;;;9.10;99.90;;;;;;5058042;28;20385;-73
2021/12/14 08:13:47;;;;;;;28.88;19.80;;;9.00;99.90;;;;;;5058540;28;20219;-72
2021/12/14 08:16:16;;;;;;;29.05;19.33;;;9.00;99.90;;;;;;5058460;28;20201;-74
2021/12/14 08:18:48;;;;;;;31.63;19.83;;;9.10;99.90;;;;;;5058664;28;20201;-72
2021/12/14 08:21:19;;;;;;;26.95;18.83;;;9.10;99.90;;;;;;5059337;28;20250;-72
2021/12/14 08:23:53;;;;;;;30.00;20.90;;;9.10;99.90;;;;;;5059017;28;20201;-73
2021/12/14 08:26:26;;;;;;;30.63;19.40;;;9.20;99.90;;;;;;5059116;28;20201;-72
2021/12/14 08:28:59;;;;;;;35.55;21.30;;;9.20;99.90;;;;;;5059095;28;20795;-73
2021/12/14 08:31:33;;;;;;;29.80;19.08;;;9.20;99.90;;;;;;5057940;28;20610;-75
2021/12/14 08:34:07;;;;;;;34.50;20.58;;;9.20;99.90;;;;;;5057025;28;20220;-72
2021/12/14 08:36:38;;;;;;;29.83;20.42;;;9.20;99.90;;;;;;5055171;28;20198;-73
2021/12/14 08:39:09;;;;;;;30.58;20.17;;;9.30;99.90;;;;;;5060550;28;20217;-74
2021/12/14 08:41:45;;;;;;;30.05;18.92;;;9.30;99.90;;;;;;5071553;28;20376;-72
2021/12/14 08:44:20;;;;;;;31.30;21.00;;;9.30;99.90;;;;;;5068574;28;20212;-72
2021/12/14 08:46:51;;;;;;;31.50;21.60;;;9.30;99.90;;;;;;5075807;28;20538;-73
2021/12/14 08:49:22;;;;;;;36.08;21.42;;;9.30;99.90;;;;;;5081419;28;20249;-74
2021/12/14 08:51:50;;;;;;;31.55;20.25;;;9.30;99.90;;;;;;5065526;28;20217;-74
2021/12/14 08:54:21;;;;;;;33.25;21.23;;;9.30;99.90;;;;;;5060923;28;20261;-74
2021/12/14 08:56:55;;;;;;;33.00;21.10;;;9.20;99.90;;;;;;5063383;28;20209;-73
2021/12/14 08:59:27;;;;;;;32.22;21.10;;;9.20;99.90;;;;;;5066956;28;20284;-71
2021/12/14 09:01:57;;;;;;;33.55;21.00;;;9.20;99.90;;;;;;5058679;28;20678;-77
2021/12/14 09:04:31;;;;;;;29.48;21.38;;;9.20;99.90;;;;;;5062889;28;20250;-70
2021/12/14 09:07:04;;;;;;;34.45;22.05;;;9.20;99.90;;;;;;5063116;28;20284;-73
2021/12/14 09:09:32;;;;;;;34.38;21.58;;;9.20;99.90;;;;;;5063123;28;20248;-72
2021/12/14 09:12:04;;;;;;;30.30;20.90;;;9.20;99.90;;;;;;5069271;28;20272;-72
2021/12/14 09:14:33;;;;;;;34.47;21.13;;;9.20;99.90;;;;;;5081264;28;20215;-74
2021/12/14 09:17:02;;;;;;;33.25;21.35;;;9.20;99.90;;;;;;5067526;28;20251;-75
2021/12/14 09:19:36;;;;;;;28.55;20.30;;;9.20;99.90;;;;;;5061633;28;20236;-73
2021/12/14 09:22:08;;;;;;;32.08;22.48;;;9.20;99.90;;;;;;5059277;28;20442;-78
2021/12/14 09:24:37;;;;;;;29.33;19.88;;;9.20;99.90;;;;;;5058657;28;20197;-75
2021/12/14 09:27:09;;;;;;;33.72;20.45;;;9.30;99.90;;;;;;5051667;28;20209;-74
2021/12/14 09:29:38;;;;;;;30.77;19.52;;;9.30;99.90;;;;;;5056316;28;20403;-76
2021/12/14 09:32:10;;;;;;;32.03;21.75;;;9.30;99.90;;;;;;5058602;28;20204;-75
2021/12/14 09:34:41;;;;;;;35.33;20.75;;;9.20;99.90;;;;;;5063584;28;20189;-76
2021/12/14 09:37:12;;;;;;;32.92;21.50;;;9.20;99.90;;;;;;5057543;28;20260;-77
2021/12/14 09:39:43;;;;;;;32.28;21.40;;;9.10;99.90;;;;;;5061230;28;20524;-77
2021/12/14 09:42:19;;;;;;;41.78;24.15;;;9.10;99.90;;;;;;5062933;28;20201;-74
2021/12/14 09:44:49;;;;;;;38.08;22.25;;;9.10;99.90;;;;;;5057253;28;20215;-75
2021/12/14 09:47:19;;;;;;;44.03;23.63;;;9.10;99.90;;;;;;5061982;28;20213;-74
2021/12/14 09:49:50;;;;;;;33.25;22.48;;;9.10;99.90;;;;;;5062403;28;20241;-78
2021/12/14 09:52:21;;;;;;;37.80;22.48;;;9.00;99.90;;;;;;5072295;28;20207;-72
2021/12/14 09:54:50;;;;;;;38.08;22.88;;;9.00;99.90;;;;;;5069253;28;20273;-76
2021/12/14 09:57:24;;;;;;;36.45;24.42;;;9.00;99.90;;;;;;5068423;28;20236;-80
2021/12/14 09:59:55;;;;;;;37.25;25.17;;;9.00;99.90;;;;;;5063263;28;20417;-78
2021/12/14 10:02:26;;;;;;;38.78;22.80;;;9.00;99.90;;;;;;5062832;28;20288;-76
2021/12/14 10:05:00;;;;;;;45.92;24.17;;;8.90;99.90;;;;;;5057549;28;20209;-75
2021/12/14 10:07:28;;;;;;;43.05;23.77;;;8.90;99.90;;;;;;5063579;28;20204;-76
2021/12/14 10:10:00;;;;;;;43.05;25.17;;;8.90;99.90;;;;;;5078479;28;20489;-76
2021/12/14 10:12:50;;;;;;;47.15;27.10;;;8.90;99.90;;;;;;5071637;28;20264;-78
2021/12/14 10:15:24;;;;;;;37.10;24.27;;;9.00;99.90;;;;;;5065743;28;20297;-77
2021/12/14 10:17:55;;;;;;;42.80;25.30;;;9.00;99.90;;;;;;5062464;28;20204;-77
2021/12/14 10:20:31;;;;;;;44.65;23.88;;;9.00;99.90;;;;;;5066462;28;20221;-77
2021/12/14 10:23:00;;;;;;;43.83;26.38;;;9.00;99.90;;;;;;5066803;28;20284;-76
2021/12/14 10:25:32;;;;;;;43.88;25.85;;;9.00;99.90;;;;;;5063977;28;20420;-76
2021/12/14 10:28:00;;;;;;;39.95;24.13;;;9.00;99.90;;;;;;5066930;28;20292;-79
2021/12/14 10:30:31;;;;;;;44.75;26.98;;;9.10;99.90;;;;;;5066257;28;20460;-75
2021/12/14 10:33:01;;;;;;;42.90;25.85;;;9.10;99.90;;;;;;5065997;28;20205;-77
2021/12/14 10:35:37;;;;;;;47.13;27.13;;;9.10;99.90;;;;;;5067131;28;20201;-76
2021/12/14 10:38:19;;;;;;;48.67;25.73;;;9.10;99.90;;;;;;5062400;28;20303;-78
2021/12/14 10:43:41;;;;;;;45.63;25.60;;;9.20;99.90;;;;;;5063930;28;20189;-76
2021/12/14 10:46:15;;;;;;;43.53;24.17;;;9.10;99.90;;;;;;5067359;28;20217;-77
2021/12/14 10:48:46;;;;;;;46.63;26.02;;;9.20;99.90;;;;;;5065683;28;20205;-75
2021/12/14 10:51:18;;;;;;;41.50;23.30;;;9.20;99.90;;;;;;5066395;28;20223;-77
2021/12/14 10:53:52;;;;;;;40.63;24.90;;;9.20;99.90;;;;;;5065879;28;20213;-78
2021/12/14 10:56:40;;;;;;;43.60;24.10;;;9.20;99.90;;;;;;5064739;28;20957;-77
2021/12/14 10:59:13;;;;;;;44.10;26.52;;;9.20;99.90;;;;;;5062221;28;20640;-77
2021/12/14 11:01:49;;;;;;;35.15;22.67;;;9.20;99.90;;;;;;5064084;28;20292;-77
2021/12/14 11:04:22;;;;;;;39.92;22.88;;;9.20;99.90;;;;;;5066376;28;20250;-76
2021/12/14 11:06:53;;;;;;;38.80;22.77;;;9.20;99.90;;;;;;5059379;28;20668;-73
2021/12/14 11:09:42;;;;;;;40.10;23.48;;;9.20;99.90;;;;;;5058044;28;20331;-74
2021/12/14 11:12:17;;;;;;;38.88;23.70;;;9.20;99.90;;;;;;5060189;28;20221;-76
2021/12/14 11:14:47;;;;;;;38.33;24.63;;;9.20;99.90;;;;;;5059260;28;20204;-76
2021/12/14 11:20:07;;;;;;;35.47;21.17;;;9.20;99.90;;;;;;5058189;28;20304;-72
2021/12/14 11:22:49;;;;;;;34.63;21.80;;;9.20;99.90;;;;;;5059450;28;20843;-72
2021/12/14 11:25:40;;;;;;;39.90;23.05;;;9.20;99.90;;;;;;5059179;28;20220;-74
2021/12/14 11:28:12;;;;;;;44.28;24.77;;;9.20;99.90;;;;;;5059087;28;20208;-72
2021/12/14 11:30:45;;;;;;;37.92;21.60;;;9.20;99.90;;;;;;5058630;28;20307;-74
2021/12/14 11:33:17;;;;;;;39.80;23.35;;;9.30;99.90;;;;;;5055148;28;20204;-74
2021/12/14 11:35:50;;;;;;;40.80;24.17;;;9.30;99.90;;;;;;5058819;28;20205;-73
2021/12/14 11:38:30;;;;;;;35.88;23.00;;;9.30;99.90;;;;;;5059155;28;20680;-72
2021/12/14 11:41:00;;;;;;;41.60;22.50;;;9.30;99.90;;;;;;5050962;28;20213;-75
2021/12/14 11:43:31;;;;;;;41.05;23.52;;;9.30;99.90;;;;;;5059966;28;20740;-75
2021/12/14 11:46:06;;;;;;;40.70;23.73;;;9.30;99.90;;;;;;5060254;28;20204;-76
2021/12/14 11:48:36;;;;;;;41.42;23.23;;;9.30;99.90;;;;;;5059960;28;20214;-75
2021/12/14 11:51:15;;;;;;;43.92;23.73;;;9.30;99.90;;;;;;5060865;28;20228;-76
2021/12/14 11:53:54;;;;;;;41.83;23.17;;;9.30;99.90;;;;;;5062408;28;20847;-76
2021/12/14 11:56:25;;;;;;;39.85;24.63;;;9.20;99.90;;;;;;5061110;28;20254;-73
2021/12/14 11:58:56;;;;;;;37.13;22.75;;;9.20;99.90;;;;;;5058511;28;20189;-73
2021/12/14 12:01:27;;;;;;;46.47;22.42;;;9.20;99.90;;;;;;5060432;28;20432;-73
2021/12/14 12:03:59;;;;;;;39.47;22.52;;;9.20;99.90;;;;;;5062976;28;20212;-71
2021/12/14 12:06:45;;;;;;;42.92;22.77;;;9.20;99.90;;;;;;5062378;28;20200;-71
2021/12/14 12:09:32;;;;;;;40.17;23.30;;;9.10;99.90;;;;;;5059933;28;20240;-72
2021/12/14 12:12:21;;;;;;;38.20;22.15;;;9.10;99.90;;;;;;5061790;28;20216;-73
2021/12/14 12:14:55;;;;;;;44.47;22.65;;;9.10;99.90;;;;;;5059617;28;20197;-73
2021/12/14 12:17:34;;;;;;;37.42;22.02;;;9.10;99.90;;;;;;5062438;28;20832;-72
2021/12/14 12:20:15;;;;;;;36.80;22.65;;;9.10;99.90;;;;;;5061510;28;20216;-73
2021/12/14 12:22:48;;;;;;;35.95;22.15;;;9.20;99.90;;;;;;5061833;28;20204;-71
2021/12/14 12:25:21;;;;;;;38.47;22.48;;;9.20;99.90;;;;;;5059790;28;20208;-72
2021/12/14 12:27:51;;;;;;;40.28;21.55;;;9.20;99.90;;;;;;5059026;28;20204;-73
2021/12/14 12:30:32;;;;;;;44.40;23.73;;;9.10;99.90;;;;;;5060159;28;20217;-72
2021/12/14 12:33:27;;;;;;;41.42;22.05;;;9.10;99.90;;;;;;5062252;28;20267;-72
2021/12/14 12:36:08;;;;;;;34.42;20.48;;;9.20;99.90;;;;;;5062751;28;20208;-71
2021/12/14 12:38:50;;;;;;;38.03;20.98;;;9.30;99.90;;;;;;5062418;28;20838;-72
2021/12/14 12:41:32;;;;;;;35.95;21.27;;;9.30;99.90;;;;;;5063444;28;20250;-74
2021/12/14 12:44:04;;;;;;;33.15;21.27;;;9.30;99.90;;;;;;5062304;28;20205;-72
2021/12/14 12:46:37;;;;;;;39.70;21.52;;;9.30;99.90;;;;;;5054110;28;20205;-72
2021/12/14 12:49:15;;;;;;;38.00;21.15;;;9.30;99.90;;;;;;5055598;28;20243;-75
2021/12/14 12:51:56;;;;;;;34.22;20.33;;;9.40;99.90;;;;;;5057133;28;20213;-74
2021/12/14 12:54:57;;;;;;;36.72;19.85;;;9.40;99.90;;;;;;5060934;28;20189;-70
2021/12/14 12:57:54;;;;;;;34.10;20.13;;;9.40;99.90;;;;;;5062031;28;20231;-73
2021/12/14 13:00:35;;;;;;;32.80;20.20;;;9.40;99.90;;;;;;5070282;28;20225;-68
2021/12/14 13:03:24;;;;;;;31.60;19.10;;;9.50;99.90;;;;;;5073502;28;20204;-72
2021/12/14 13:05:55;;;;;;;35.90;21.88;;;9.50;99.90;;;;;;5076726;28;20197;-73
2021/12/14 13:08:26;;;;;;;40.28;21.17;;;9.40;99.90;;;;;;5074791;28;20293;-70
2021/12/14 13:10:58;;;;;;;33.53;21.00;;;9.50;99.90;;;;;;5063551;28;20221;-70
2021/12/14 13:13:30;;;;;;;32.05;18.75;;;9.50;99.90;;;;;;5062724;28;20217;-69
2021/12/14 13:16:06;;;;;;;32.17;19.75;;;9.50;99.90;;;;;;5061774;28;20296;-70
2021/12/14 13:18:47;;;;;;;31.30;19.10;;;9.50;99.90;;;;;;5062205;28;20328;-71
2021/12/14 13:21:37;;;;;;;31.25;19.88;;;9.60;99.90;;;;;;5059689;28;20287;-71
2021/12/14 13:24:12;;;;;;;27.17;15.57;;;9.60;99.90;;;;;;5061217;28;20193;-74
2021/12/14 13:26:51;;;;;;;34.83;19.25;;;9.60;99.90;;;;;;5060306;28;20651;-73
2021/12/14 13:29:30;;;;;;;28.08;16.52;;;9.70;99.90;;;;;;5057563;28;20246;-72
2021/12/14 13:32:08;;;;;;;30.83;18.08;;;9.70;99.90;;;;;;5060107;28;20221;-76
2021/12/14 13:34:52;;;;;;;30.17;17.67;;;9.80;99.90;;;;;;5060100;28;20211;-73
2021/12/14 13:37:24;;;;;;;28.60;17.85;;;9.80;99.90;;;;;;5060806;28;20283;-75
2021/12/14 13:39:53;;;;;;;30.90;18.70;;;9.80;99.90;;;;;;5059706;28;20423;-71
2021/12/14 13:42:50;;;;;;;28.17;16.40;;;9.80;99.90;;;;;;5062455;28;20201;-70
2021/12/14 13:45:22;;;;;;;23.43;14.40;;;9.80;99.90;;;;;;5062144;28;20427;-71